createdAt,value
2023-03-19T00:00:28.725Z,11.82
2023-03-19T00:02:58.490Z,13.05
2023-03-19T00:05:25.497Z,12.02
2023-03-19T00:07:52.408Z,11.18
2023-03-19T00:10:19.231Z,12.20
2023-03-19T00:12:46.442Z,9.93
2023-03-19T00:15:14.647Z,11.55
2023-03-19T00:17:44.934Z,13.60
2023-03-19T00:20:15.165Z,15.52
2023-03-19T00:22:42.540Z,15.02
2023-03-19T00:25:10.074Z,14.15
2023-03-19T00:27:38.061Z,15.57
2023-03-19T00:30:06.884Z,13.05
2023-03-19T00:32:34.179Z,10.52
2023-03-19T00:35:01.488Z,15.13
2023-03-19T00:37:28.635Z,11.32
2023-03-19T00:39:56.124Z,16.15
2023-03-19T00:42:23.339Z,16.90
2023-03-19T00:44:50.331Z,12.63
2023-03-19T00:47:17.329Z,14.88
2023-03-19T00:49:44.604Z,15.75
2023-03-19T00:52:11.475Z,12.85
2023-03-19T00:54:38.365Z,14.35
2023-03-19T00:57:05.700Z,15.90
2023-03-19T00:59:32.499Z,14.93
2023-03-19T01:01:59.406Z,13.13
2023-03-19T01:04:26.301Z,15.35
2023-03-19T01:06:53.198Z,14.80
2023-03-19T01:09:20.186Z,14.88
2023-03-19T01:11:47.020Z,17.00
2023-03-19T01:14:17.131Z,16.27
2023-03-19T01:16:44.103Z,16.80
2023-03-19T01:19:12.374Z,16.77
2023-03-19T01:21:39.333Z,14.65
2023-03-19T01:24:06.286Z,17.42
2023-03-19T01:26:33.126Z,14.90
2023-03-19T01:29:00.104Z,15.27
2023-03-19T01:31:27.124Z,16.67
2023-03-19T01:33:53.975Z,15.65
2023-03-19T01:36:21.390Z,16.13
2023-03-19T01:38:48.437Z,16.75
2023-03-19T01:41:16.094Z,14.00
2023-03-19T01:43:43.057Z,15.00
2023-03-19T01:46:34.750Z,17.00
2023-03-19T01:49:06.294Z,21.27
2023-03-19T01:51:39.490Z,17.20
2023-03-19T01:54:10.528Z,14.82
2023-03-19T01:56:39.870Z,15.77
2023-03-19T01:59:14.860Z,22.45
2023-03-19T02:02:07.857Z,17.52
2023-03-19T02:04:36.519Z,16.33
2023-03-19T02:07:04.640Z,14.18
2023-03-19T02:09:32.276Z,12.20
2023-03-19T02:12:00.792Z,12.43
2023-03-19T02:14:28.125Z,15.00
2023-03-19T02:16:55.840Z,16.50
2023-03-19T02:19:32.122Z,14.02
2023-03-19T02:22:01.464Z,13.57
2023-03-19T02:24:39.117Z,18.05
2023-03-19T02:27:09.398Z,14.70
2023-03-19T02:29:36.419Z,11.95
2023-03-19T02:32:03.769Z,13.00
2023-03-19T02:34:36.861Z,13.65
2023-03-19T02:37:17.684Z,14.35
2023-03-19T02:39:51.835Z,10.02
2023-03-19T02:42:21.677Z,13.23
2023-03-19T02:44:48.805Z,11.68
2023-03-19T02:47:16.232Z,15.93
2023-03-19T02:49:43.309Z,11.98
2023-03-19T02:52:10.266Z,11.32
2023-03-19T02:54:37.119Z,12.75
2023-03-19T02:57:04.459Z,9.07
2023-03-19T02:59:31.538Z,11.45
2023-03-19T03:01:58.418Z,12.48
2023-03-19T03:04:26.378Z,8.13
2023-03-19T03:06:53.223Z,7.88
2023-03-19T03:09:20.627Z,7.25
2023-03-19T03:11:47.837Z,7.28
2023-03-19T03:14:14.645Z,6.70
2023-03-19T03:16:41.848Z,7.80
2023-03-19T03:19:08.898Z,5.20
2023-03-19T03:21:36.210Z,5.85
2023-03-19T03:24:03.269Z,5.88
2023-03-19T03:26:30.100Z,6.90
2023-03-19T03:28:56.906Z,5.18
2023-03-19T03:31:23.766Z,6.13
2023-03-19T03:33:50.652Z,6.65
2023-03-19T03:36:17.684Z,6.20
2023-03-19T03:38:46.030Z,4.43
2023-03-19T03:41:12.910Z,5.68
2023-03-19T03:43:41.073Z,3.28
2023-03-19T03:46:08.771Z,6.00
2023-03-19T03:48:35.843Z,3.45
2023-03-19T03:51:03.314Z,3.10
2023-03-19T03:53:30.485Z,4.47
2023-03-19T03:55:57.300Z,6.50
2023-03-19T03:58:24.150Z,3.53
2023-03-19T04:00:51.537Z,3.22
2023-03-19T04:03:19.547Z,5.40
2023-03-19T04:05:46.455Z,6.97
2023-03-19T04:08:13.850Z,3.03
2023-03-19T04:10:42.521Z,4.45
2023-03-19T04:13:10.196Z,8.48
2023-03-19T04:15:37.244Z,3.53
2023-03-19T04:18:04.222Z,3.35
2023-03-19T04:20:31.528Z,3.40
2023-03-19T04:22:58.643Z,2.97
2023-03-19T04:25:26.019Z,4.68
2023-03-19T04:27:52.974Z,2.65
2023-03-19T04:30:20.564Z,4.55
2023-03-19T04:32:47.691Z,2.95
2023-03-19T04:35:14.727Z,5.38
2023-03-19T04:37:43.500Z,3.53
2023-03-19T04:40:11.070Z,4.93
2023-03-19T04:42:37.892Z,3.95
2023-03-19T04:45:05.451Z,3.33
2023-03-19T04:47:32.245Z,3.88
2023-03-19T04:49:59.031Z,2.40
2023-03-19T04:52:26.128Z,3.83
2023-03-19T04:54:52.953Z,4.88
2023-03-19T04:57:19.978Z,2.10
2023-03-19T04:59:46.880Z,3.08
2023-03-19T05:02:13.790Z,3.47
2023-03-19T05:04:41.105Z,4.63
2023-03-19T05:07:08.050Z,2.20
2023-03-19T05:09:34.965Z,2.05
2023-03-19T05:12:01.867Z,2.85
2023-03-19T05:14:28.798Z,2.80
2023-03-19T05:16:55.583Z,2.42
2023-03-19T05:19:22.818Z,2.47
2023-03-19T05:21:49.937Z,5.13
2023-03-19T05:24:16.771Z,4.65
2023-03-19T05:26:43.691Z,5.50
2023-03-19T05:29:11.282Z,3.45
2023-03-19T05:31:38.676Z,3.47
2023-03-19T05:34:05.678Z,2.42
2023-03-19T05:36:32.645Z,3.05
2023-03-19T05:38:59.627Z,4.65
2023-03-19T05:41:26.973Z,3.97
2023-03-19T05:43:53.824Z,3.08
2023-03-19T05:46:20.683Z,2.65
2023-03-19T05:48:47.798Z,3.92
2023-03-19T05:51:14.810Z,3.42
2023-03-19T05:53:41.707Z,5.07
2023-03-19T05:56:10.125Z,6.55
2023-03-19T05:58:36.959Z,4.07
2023-03-19T06:01:03.888Z,4.13
2023-03-19T06:03:30.849Z,3.55
2023-03-19T06:05:57.889Z,4.47
2023-03-19T06:08:24.804Z,3.15
2023-03-19T06:10:53.153Z,3.75
2023-03-19T06:13:20.115Z,2.53
2023-03-19T06:15:49.172Z,3.58
2023-03-19T06:18:16.965Z,8.15
2023-03-19T06:20:43.885Z,5.38
2023-03-19T06:23:10.812Z,4.18
2023-03-19T06:25:37.732Z,2.58
2023-03-19T06:28:05.898Z,3.10
2023-03-19T06:30:34.303Z,2.63
2023-03-19T06:33:01.718Z,3.20
2023-03-19T06:35:28.605Z,4.35
2023-03-19T06:37:55.912Z,4.00
2023-03-19T06:40:22.982Z,2.33
2023-03-19T06:42:49.881Z,3.03
2023-03-19T06:45:18.970Z,5.30
2023-03-19T06:47:47.350Z,4.57
2023-03-19T06:50:16.445Z,5.22
2023-03-19T06:52:44.889Z,5.28
2023-03-19T06:55:12.675Z,3.88
2023-03-19T06:57:39.784Z,5.15
2023-03-19T07:00:10.435Z,6.50
2023-03-19T07:02:37.554Z,10.10
2023-03-19T07:05:05.467Z,3.92
2023-03-19T07:07:32.493Z,5.32
2023-03-19T07:09:59.471Z,4.70
2023-03-19T07:12:28.985Z,4.20
2023-03-19T07:14:56.607Z,8.38
2023-03-19T07:17:24.643Z,5.40
2023-03-19T07:19:52.090Z,6.75
2023-03-19T07:22:19.201Z,6.32
2023-03-19T07:24:46.135Z,4.47
2023-03-19T07:27:13.119Z,5.38
2023-03-19T07:29:40.174Z,4.30
2023-03-19T07:32:12.829Z,8.13
2023-03-19T07:34:39.796Z,6.70
2023-03-19T07:37:06.754Z,5.60
2023-03-19T07:39:34.191Z,7.95
2023-03-19T07:42:01.039Z,4.68
2023-03-19T07:44:27.848Z,4.57
2023-03-19T07:46:54.685Z,4.32
2023-03-19T07:49:22.251Z,7.38
2023-03-19T07:51:49.428Z,6.35
2023-03-19T07:54:16.348Z,6.15
2023-03-19T07:56:43.293Z,8.23
2023-03-19T07:59:11.195Z,6.63
2023-03-19T08:01:38.019Z,6.65
2023-03-19T08:04:05.193Z,5.57
2023-03-19T08:06:32.079Z,8.40
2023-03-19T08:08:58.927Z,6.75
2023-03-19T08:11:26.110Z,6.53
2023-03-19T08:13:52.939Z,10.45
2023-03-19T08:16:19.923Z,8.38
2023-03-19T08:18:52.381Z,10.27
2023-03-19T08:21:19.341Z,11.50
2023-03-19T08:23:46.329Z,8.98
2023-03-19T08:26:13.190Z,7.07
2023-03-19T08:28:40.143Z,8.02
2023-03-19T08:31:12.584Z,9.80
2023-03-19T08:33:41.820Z,11.75
2023-03-19T08:36:14.095Z,8.43
2023-03-19T08:38:41.643Z,9.80
2023-03-19T08:41:09.407Z,15.23
2023-03-19T08:43:37.933Z,9.15
2023-03-19T08:46:05.732Z,8.75
2023-03-19T08:48:32.694Z,7.82
2023-03-19T08:51:02.588Z,10.70
2023-03-19T08:53:30.769Z,9.68
2023-03-19T08:56:00.734Z,8.15
2023-03-19T08:58:28.355Z,8.38
2023-03-19T09:01:05.903Z,7.97
2023-03-19T09:03:33.278Z,9.68
2023-03-19T09:06:02.326Z,7.13
2023-03-19T09:08:30.971Z,6.53
2023-03-19T09:10:58.341Z,5.18
2023-03-19T09:13:26.108Z,5.75
2023-03-19T09:15:53.338Z,8.02
2023-03-19T09:18:29.416Z,8.40
2023-03-19T09:20:56.334Z,6.57
2023-03-19T09:23:23.732Z,5.63
2023-03-19T09:25:51.338Z,6.00
2023-03-19T09:28:19.211Z,8.05
2023-03-19T09:30:47.942Z,6.28
2023-03-19T09:33:19.488Z,5.38
2023-03-19T09:35:52.708Z,4.45
2023-03-19T09:38:25.030Z,8.00
2023-03-19T09:41:23.958Z,3.75
2023-03-19T09:44:04.506Z,4.80
2023-03-19T09:46:54.534Z,6.57
2023-03-19T09:49:30.349Z,6.38
2023-03-19T09:52:18.038Z,6.13
2023-03-19T09:54:54.923Z,5.50
2023-03-19T09:57:22.350Z,5.45
2023-03-19T09:59:49.737Z,5.82
2023-03-19T10:02:43.240Z,5.72
2023-03-19T10:05:22.684Z,9.75
2023-03-19T10:08:04.651Z,6.40
2023-03-19T10:10:38.489Z,7.35
2023-03-19T10:13:14.153Z,4.38
2023-03-19T10:15:44.311Z,6.13
2023-03-19T10:18:28.271Z,6.55
2023-03-19T10:21:09.044Z,8.37
2023-03-19T10:23:52.930Z,8.63
2023-03-19T10:26:21.769Z,7.90
2023-03-19T10:29:02.278Z,4.75
2023-03-19T10:31:40.967Z,5.93
2023-03-19T10:34:34.878Z,4.57
2023-03-19T10:37:27.179Z,4.53
2023-03-19T10:39:59.437Z,4.43
2023-03-19T10:42:42.524Z,6.95
2023-03-19T10:45:25.123Z,5.15
2023-03-19T10:47:53.040Z,8.23
2023-03-19T10:50:42.921Z,4.50
2023-03-19T10:53:15.832Z,4.93
2023-03-19T10:55:55.643Z,5.85
2023-03-19T10:58:27.902Z,4.13
2023-03-19T11:01:04.090Z,6.32
2023-03-19T11:04:10.575Z,6.10
2023-03-19T11:06:39.431Z,5.38
2023-03-19T11:09:09.033Z,4.60
2023-03-19T11:11:42.604Z,5.85
2023-03-19T11:14:18.434Z,6.00
2023-03-19T11:17:18.653Z,7.13
2023-03-19T11:19:52.530Z,8.38
2023-03-19T11:22:29.900Z,3.97
2023-03-19T11:25:01.081Z,4.85
2023-03-19T11:27:36.258Z,4.15
2023-03-19T11:30:13.170Z,5.55
2023-03-19T11:32:40.143Z,5.07
2023-03-19T11:35:20.605Z,5.45
2023-03-19T11:38:05.092Z,6.45
2023-03-19T11:40:46.056Z,6.15
2023-03-19T11:43:38.346Z,9.90
2023-03-19T11:46:26.876Z,5.63
2023-03-19T11:48:59.748Z,5.03
2023-03-19T11:51:36.270Z,4.97
2023-03-19T11:54:43.633Z,3.25
2023-03-19T11:57:29.117Z,3.20
2023-03-19T12:00:20.893Z,4.00
2023-03-19T12:03:13.155Z,4.22
2023-03-19T12:06:05.539Z,3.67
2023-03-19T12:08:50.730Z,2.78
2023-03-19T12:11:41.753Z,5.57
2023-03-19T12:14:26.701Z,3.55
2023-03-19T12:17:22.264Z,3.22
2023-03-19T12:20:02.558Z,3.17
2023-03-19T12:22:46.426Z,3.78
2023-03-19T12:25:32.604Z,4.72
2023-03-19T12:28:13.460Z,3.83
2023-03-19T12:30:54.586Z,6.82
2023-03-19T12:33:47.046Z,3.17
2023-03-19T12:36:32.124Z,4.47
2023-03-19T12:39:05.375Z,6.88
2023-03-19T12:41:36.485Z,4.28
2023-03-19T12:44:19.932Z,5.50
2023-03-19T12:46:58.565Z,5.63
2023-03-19T12:49:44.642Z,6.40
2023-03-19T12:52:41.832Z,5.28
2023-03-19T12:55:22.417Z,4.50
2023-03-19T12:57:51.847Z,9.20
2023-03-19T13:00:26.370Z,5.22
2023-03-19T13:03:22.461Z,5.43
2023-03-19T13:06:10.276Z,5.65
2023-03-19T13:08:49.779Z,5.70
2023-03-19T13:11:39.608Z,6.72
2023-03-19T13:14:22.633Z,5.50
2023-03-19T13:16:55.388Z,6.22
2023-03-19T13:19:31.996Z,4.18
2023-03-19T13:22:04.667Z,3.53
2023-03-19T13:24:37.056Z,3.38
2023-03-19T13:27:06.635Z,4.22
2023-03-19T13:29:36.907Z,7.13
2023-03-19T13:32:36.518Z,4.70
2023-03-19T13:35:27.279Z,4.80
2023-03-19T13:38:22.675Z,5.22
2023-03-19T13:40:49.570Z,4.95
2023-03-19T13:43:29.222Z,9.02
2023-03-19T13:46:05.965Z,4.93
2023-03-19T13:48:33.227Z,8.27
2023-03-19T13:51:05.672Z,4.18
2023-03-19T13:53:32.530Z,4.95
2023-03-19T13:56:22.530Z,3.53
2023-03-19T13:59:16.791Z,5.53
2023-03-19T14:01:45.203Z,4.13
2023-03-19T14:04:29.294Z,6.57
2023-03-19T14:06:59.352Z,4.78
2023-03-19T14:09:32.606Z,3.85
2023-03-19T14:12:15.918Z,5.00
2023-03-19T14:14:46.930Z,7.60
2023-03-19T14:17:22.584Z,4.00
2023-03-19T14:19:52.293Z,8.30
2023-03-19T14:22:33.003Z,5.75
2023-03-19T14:25:05.954Z,4.90
2023-03-19T14:27:33.709Z,6.57
2023-03-19T14:30:09.912Z,3.67
2023-03-19T14:32:42.762Z,7.45
2023-03-19T14:35:16.679Z,8.52
2023-03-19T14:37:49.451Z,7.88
2023-03-19T14:40:20.934Z,5.70
2023-03-19T14:43:05.283Z,6.55
2023-03-19T14:45:42.382Z,7.40
2023-03-19T14:48:09.449Z,7.43
2023-03-19T14:50:54.030Z,5.88
2023-03-19T14:56:19.229Z,7.63
2023-03-19T14:58:56.978Z,6.32
2023-03-19T15:01:27.084Z,7.88
2023-03-19T15:04:07.866Z,6.45
2023-03-19T15:06:38.781Z,6.30
2023-03-19T15:09:31.659Z,7.43
2023-03-19T15:12:33.758Z,10.02
2023-03-19T15:15:15.572Z,8.57
2023-03-19T15:17:47.090Z,7.88
2023-03-19T15:20:23.580Z,8.57
2023-03-19T15:23:05.797Z,14.90
2023-03-19T15:25:49.468Z,8.38
2023-03-19T15:28:19.582Z,8.73
2023-03-19T15:31:03.533Z,9.52
2023-03-19T15:33:44.068Z,10.27
2023-03-19T15:36:24.624Z,9.52
2023-03-19T15:39:00.323Z,13.68
2023-03-19T15:41:31.380Z,11.13
2023-03-19T15:44:00.393Z,13.32
2023-03-19T15:46:34.537Z,10.90
2023-03-19T15:49:21.300Z,12.60
2023-03-19T15:51:53.617Z,12.15
2023-03-19T15:54:22.184Z,8.40
2023-03-19T15:56:52.016Z,11.40
2023-03-19T15:59:21.911Z,13.85
2023-03-19T16:01:49.989Z,16.17
2023-03-19T16:04:22.068Z,16.48
2023-03-19T16:06:50.687Z,14.80
2023-03-19T16:09:36.157Z,18.30
2023-03-19T16:12:38.661Z,14.27
2023-03-19T16:15:40.611Z,19.50
2023-03-19T16:18:27.888Z,21.45
2023-03-19T16:21:08.594Z,14.88
2023-03-19T16:23:57.709Z,16.52
2023-03-19T16:26:30.730Z,14.02
2023-03-19T16:28:59.775Z,15.98
2023-03-19T16:31:32.011Z,15.38
2023-03-19T16:33:59.449Z,14.57
2023-03-19T16:36:32.390Z,17.80
2023-03-19T16:39:23.787Z,14.63
2023-03-19T16:42:29.383Z,14.57
2023-03-19T16:47:25.769Z,14.40
2023-03-19T16:49:52.592Z,13.82
2023-03-19T16:52:23.823Z,13.52
2023-03-19T16:54:52.068Z,15.27
2023-03-19T16:57:19.699Z,14.77
2023-03-19T16:59:47.200Z,14.93
2023-03-19T17:02:17.024Z,17.58
2023-03-19T17:04:44.627Z,18.75
2023-03-19T17:07:12.281Z,17.63
2023-03-19T17:09:39.476Z,14.52
2023-03-19T17:12:13.358Z,14.50
2023-03-19T17:14:40.482Z,18.88
2023-03-19T17:17:18.938Z,18.38
2023-03-19T17:19:46.941Z,15.48
2023-03-19T17:22:14.486Z,23.95
2023-03-19T17:24:41.966Z,24.05
2023-03-19T17:27:09.842Z,31.20
2023-03-19T17:29:36.807Z,18.42
2023-03-19T17:32:06.884Z,21.17
2023-03-19T17:34:35.547Z,21.20
2023-03-19T17:37:04.095Z,25.13
2023-03-19T17:39:31.570Z,23.92
2023-03-19T17:41:59.030Z,13.23
2023-03-19T17:44:25.977Z,21.10
2023-03-19T17:46:54.628Z,21.38
2023-03-19T17:49:22.821Z,27.30
2023-03-19T17:51:52.849Z,25.30
2023-03-19T17:54:20.031Z,22.92
2023-03-19T17:56:46.934Z,29.88
2023-03-19T17:59:14.380Z,23.52
2023-03-19T18:01:47.098Z,18.63
2023-03-19T18:04:17.996Z,26.42
2023-03-19T18:06:49.989Z,20.90
2023-03-19T18:09:28.309Z,21.00
2023-03-19T18:11:55.617Z,20.35
2023-03-19T18:14:22.545Z,22.20
2023-03-19T18:16:49.730Z,18.80
2023-03-19T18:19:21.167Z,19.98
2023-03-19T18:21:48.076Z,20.25
2023-03-19T18:24:14.968Z,19.85
2023-03-19T18:26:41.888Z,23.83
2023-03-19T18:29:09.137Z,17.23
2023-03-19T18:31:37.236Z,21.58
2023-03-19T18:34:08.447Z,20.27
2023-03-19T18:36:35.725Z,21.88
2023-03-19T18:39:03.483Z,24.80
2023-03-19T18:41:30.473Z,21.63
2023-03-19T18:43:57.479Z,22.25
2023-03-19T18:46:31.041Z,20.65
2023-03-19T18:49:04.873Z,26.73
2023-03-19T18:51:31.874Z,19.35
2023-03-19T18:53:59.047Z,23.92
2023-03-19T18:56:29.636Z,27.42
2023-03-19T18:58:58.711Z,24.77
2023-03-19T19:01:27.087Z,23.25
2023-03-19T19:03:54.488Z,25.27
2023-03-19T19:06:45.954Z,21.60
2023-03-19T19:09:13.307Z,30.60
2023-03-19T19:11:41.834Z,22.67
2023-03-19T19:14:19.694Z,27.55
2023-03-19T19:16:46.967Z,28.58
2023-03-19T19:19:21.151Z,24.50
2023-03-19T19:21:48.308Z,22.20
2023-03-19T19:24:15.285Z,33.95
2023-03-19T19:26:44.474Z,21.85
2023-03-19T19:29:26.477Z,28.15
2023-03-19T19:31:54.365Z,26.85
2023-03-19T19:34:21.466Z,24.15
2023-03-19T19:36:48.370Z,20.63
2023-03-19T19:39:15.222Z,23.00
2023-03-19T19:41:43.773Z,16.60
2023-03-19T19:44:22.262Z,22.73
2023-03-19T19:46:53.391Z,24.33
2023-03-19T19:49:21.692Z,19.52
2023-03-19T19:51:48.657Z,16.30
2023-03-19T19:54:16.125Z,12.05
2023-03-19T19:56:43.073Z,19.00
2023-03-19T19:59:14.923Z,18.45
2023-03-19T20:01:41.937Z,18.65
2023-03-19T20:04:14.471Z,16.48
2023-03-19T20:06:41.780Z,19.77
2023-03-19T20:09:08.615Z,22.08
2023-03-19T20:11:35.689Z,17.25
2023-03-19T20:14:02.650Z,18.60
2023-03-19T20:16:29.597Z,13.50
2023-03-19T20:18:56.926Z,16.25
2023-03-19T20:21:23.991Z,17.40
2023-03-19T20:23:56.032Z,16.98
2023-03-19T20:26:24.939Z,15.50
2023-03-19T20:28:52.120Z,15.18
2023-03-19T20:31:28.056Z,16.27
2023-03-19T20:33:55.094Z,16.88
2023-03-19T20:36:22.265Z,19.85
2023-03-19T20:38:49.206Z,18.08
2023-03-19T20:41:20.362Z,16.92
2023-03-19T20:43:47.868Z,14.18
2023-03-19T20:46:15.841Z,18.77
2023-03-19T20:48:42.711Z,15.15
2023-03-19T20:51:22.318Z,13.82
2023-03-19T20:53:51.239Z,14.27
2023-03-19T20:56:21.053Z,12.02
2023-03-19T20:58:48.372Z,14.88
2023-03-19T21:01:15.882Z,9.88
2023-03-19T21:03:42.776Z,7.15
2023-03-19T21:06:18.163Z,11.35
2023-03-19T21:08:48.605Z,6.22
2023-03-19T21:11:18.193Z,5.40
2023-03-19T21:13:46.442Z,4.93
2023-03-19T21:16:25.735Z,10.32
2023-03-19T21:18:53.966Z,5.07
2023-03-19T21:21:29.740Z,6.97
2023-03-19T21:24:01.175Z,3.83
2023-03-19T21:26:28.086Z,6.00
2023-03-19T21:29:05.653Z,8.40
2023-03-19T21:31:33.492Z,7.50
2023-03-19T21:34:01.294Z,5.25
2023-03-19T21:36:29.041Z,7.88
2023-03-19T21:38:56.418Z,6.38
2023-03-19T21:41:30.214Z,5.55
2023-03-19T21:44:00.679Z,6.22
2023-03-19T21:46:30.153Z,7.15
2023-03-19T21:48:58.571Z,6.63
2023-03-19T21:51:26.985Z,7.95
2023-03-19T21:53:53.925Z,7.45
2023-03-19T21:56:33.466Z,8.13
2023-03-19T21:59:03.528Z,6.47
2023-03-19T22:01:30.542Z,7.32
2023-03-19T22:03:58.351Z,9.90
2023-03-19T22:06:25.882Z,8.65
2023-03-19T22:08:54.356Z,8.07
2023-03-19T22:11:31.492Z,7.30
2023-03-19T22:14:06.503Z,8.18
2023-03-19T22:16:33.924Z,6.80
2023-03-19T22:19:01.609Z,6.85
2023-03-19T22:21:30.985Z,6.47
2023-03-19T22:23:57.989Z,5.43
2023-03-19T22:26:30.994Z,6.20
2023-03-19T22:29:01.090Z,8.35
2023-03-19T22:31:28.930Z,6.50
2023-03-19T22:33:56.533Z,7.07
2023-03-19T22:36:23.533Z,7.45
2023-03-19T22:38:51.451Z,7.35
2023-03-19T22:41:32.172Z,6.78
2023-03-19T22:44:01.296Z,6.22
2023-03-19T22:46:28.577Z,6.32
2023-03-19T22:48:55.703Z,6.38
2023-03-19T22:51:25.075Z,7.00
2023-03-19T22:53:52.152Z,7.07
2023-03-19T22:56:20.467Z,5.57
2023-03-19T22:58:48.975Z,7.18
2023-03-19T23:01:20.575Z,4.88
2023-03-19T23:03:48.889Z,9.20
2023-03-19T23:06:30.147Z,5.85
2023-03-19T23:08:57.532Z,5.55
2023-03-19T23:11:24.577Z,5.93
2023-03-19T23:13:51.762Z,6.50
2023-03-19T23:16:24.615Z,8.63
2023-03-19T23:18:52.483Z,9.07
2023-03-19T23:21:20.918Z,7.13
2023-03-19T23:23:47.739Z,8.43
2023-03-19T23:26:26.694Z,8.18
2023-03-19T23:28:56.439Z,10.52
2023-03-19T23:31:23.453Z,7.07
2023-03-19T23:33:50.223Z,6.57
2023-03-19T23:36:19.283Z,5.95
2023-03-19T23:38:46.800Z,8.50
2023-03-19T23:41:24.994Z,8.18
2023-03-19T23:43:53.229Z,8.10
2023-03-19T23:46:21.095Z,6.88
2023-03-19T23:48:48.076Z,6.28
2023-03-19T23:51:16.854Z,9.10
2023-03-19T23:53:43.943Z,4.18
2023-03-19T23:56:26.112Z,4.57
